Terminal Aerodrome Forecast
Issued by NWS Pocatello, ID

Home | Current Version | Previous Version | Text Only | Print | Product List | Glossary On
Versions: 1 2 3 4 5 6 7 8 9 10 11 12 13 14 15 16 17 18 19 20 21 22 23 24 25 26 27 28 29 30 31 32
000
FTUS45 KPIH 090906 AAC
TAFPIH
TAF AMD
KPIH 090906Z 0909/1006 VRB04KT 4SM -SN BR VCSH SCT014 BKN025 OVC040
      TEMPO 0909/0910 1SM -SN BKN014
     FM091300 19015KT 6SM BR VCSH SCT008 OVC015
     FM091600 19010KT 6SM -RA BR BKN008 OVC015
     FM100000 18015KT 6SM -RA BR SCT008 BKN015 OVC025=

USA.gov is the U.S. government's official web portal to all federal, state and local government web resources and services.